Time;durP1;ratioP1;P1;durP2;ratioP2;P2;SDS_P1;SDS_P2;PMS_P1;PMS_P2;Temp;Humidity;BMP_temperature;BMP_pressure;BME280_temperature;BME280_humidity;BME280_pressure;Samples;Min_cycle;Max_cycle;Signal;HPM_P1;HPM_P2
2023/06/19 00:02:16;;;;;;;;;12.67;10.67;25.30;54.60;;;;;;111221;1243;44726;-64
2023/06/19 00:04:43;;;;;;;;;11.75;10.75;25.30;54.60;;;;;;111089;1239;50262;-64
2023/06/19 00:07:10;;;;;;;;;11.00;9.33;25.30;54.80;;;;;;111206;1243;50147;-64
2023/06/19 00:09:37;;;;;;;;;12.00;11.25;25.30;54.80;;;;;;111176;1243;53960;-63
2023/06/19 00:12:05;;;;;;;;;13.00;12.00;25.30;54.60;;;;;;111267;1238;45164;-63
2023/06/19 00:14:32;;;;;;;;;14.75;13.25;25.20;54.50;;;;;;111089;1238;49354;-62
2023/06/19 00:17:00;;;;;;;;;10.25;9.75;25.20;55.10;;;;;;111218;1243;50478;-62
2023/06/19 00:19:28;;;;;;;;;11.00;10.00;25.20;54.60;;;;;;111235;1243;54000;-59
2023/06/19 00:21:57;;;;;;;;;12.00;11.00;25.20;54.50;;;;;;111224;1243;44364;-62
2023/06/19 00:24:24;;;;;;;;;11.00;10.75;25.20;54.60;;;;;;111044;1243;49378;-62
2023/06/19 00:26:50;;;;;;;;;10.00;9.00;25.20;54.60;;;;;;111241;1243;49642;-62
2023/06/19 00:29:17;;;;;;;;;13.75;10.75;25.20;54.60;;;;;;111254;1239;53900;-62
2023/06/19 00:31:44;;;;;;;;;12.00;12.00;25.20;54.60;;;;;;111240;1240;44858;-61
2023/06/19 00:34:11;;;;;;;;;11.75;10.75;25.20;54.60;;;;;;111193;1243;49931;-62
2023/06/19 00:36:40;;;;;;;;;12.25;11.00;25.20;54.80;;;;;;111175;1238;49350;-61
2023/06/19 00:39:08;;;;;;;;;11.75;11.25;25.20;54.60;;;;;;111160;1243;53886;-61
2023/06/19 00:41:35;;;;;;;;;12.00;11.00;25.20;54.60;;;;;;111168;1240;44856;-62
2023/06/19 00:44:02;;;;;;;;;12.00;11.00;25.20;54.70;;;;;;111163;1243;48931;-62
2023/06/19 00:46:30;;;;;;;;;11.00;10.33;25.20;54.70;;;;;;111106;1240;49605;-62
2023/06/19 00:48:57;;;;;;;;;11.00;11.00;25.10;54.60;;;;;;111232;1240;53938;-62
2023/06/19 00:51:24;;;;;;;;;10.00;9.00;25.10;54.60;;;;;;111205;1239;44359;-62
2023/06/19 00:53:52;;;;;;;;;12.75;11.75;25.10;55.20;;;;;;111337;1238;50361;-62
2023/06/19 00:56:19;;;;;;;;;13.00;12.00;25.10;54.70;;;;;;111009;1239;49259;-62
2023/06/19 00:58:46;;;;;;;;;13.00;12.00;25.10;54.70;;;;;;111266;1243;53966;-63
2023/06/19 01:01:13;;;;;;;;;13.00;12.50;25.10;54.70;;;;;;111228;1241;44750;-63
2023/06/19 01:03:40;;;;;;;;;10.75;9.75;25.10;54.70;;;;;;111393;1243;49712;-62
2023/06/19 01:06:14;;;;;;;;;11.00;9.67;25.00;54.60;;;;;;111067;1243;49325;-61
2023/06/19 01:09:05;;;;;;;;;12.00;11.00;25.10;54.70;;;;;;111200;1243;53627;-62
2023/06/19 01:11:42;;;;;;;;;10.67;9.33;25.00;54.10;;;;;;111274;1244;45057;-62
2023/06/19 01:14:15;;;;;;;;;12.50;11.50;25.10;54.80;;;;;;111397;1239;49564;-62
2023/06/19 01:16:43;;;;;;;;;11.00;10.25;25.00;54.70;;;;;;111105;1240;49685;-61
2023/06/19 01:19:15;;;;;;;;;12.00;11.00;25.10;54.60;;;;;;111220;1243;53438;-61
2023/06/19 01:21:42;;;;;;;;;11.00;10.75;25.10;54.80;;;;;;111221;1243;44046;-61
2023/06/19 01:24:09;;;;;;;;;11.00;10.00;25.10;54.80;;;;;;111166;1239;48915;-60
2023/06/19 01:26:36;;;;;;;;;14.25;12.25;25.10;54.80;;;;;;111114;1240;49294;-61
2023/06/19 01:29:04;;;;;;;;;11.67;11.00;25.10;54.60;;;;;;111271;1241;53519;-61
2023/06/19 01:31:41;;;;;;;;;11.75;11.50;25.10;54.60;;;;;;111300;1244;45220;-61
2023/06/19 01:34:08;;;;;;;;;11.00;10.50;25.10;54.50;;;;;;111224;1243;49492;-60
2023/06/19 01:36:35;;;;;;;;;12.00;11.00;25.00;54.50;;;;;;111114;1240;49270;-63
2023/06/19 01:39:03;;;;;;;;;10.33;10.00;25.00;54.50;;;;;;111234;1243;53643;-62
2023/06/19 01:41:32;;;;;;;;;10.00;9.67;25.00;54.50;;;;;;111367;1240;45982;-62
2023/06/19 01:43:59;;;;;;;;;12.00;11.00;25.10;54.50;;;;;;111252;1243;48936;-63
2023/06/19 01:46:26;;;;;;;;;14.00;13.67;25.00;54.50;;;;;;111636;1239;49360;-62
2023/06/19 01:48:54;;;;;;;;;12.50;11.00;25.00;54.70;;;;;;111311;1244;54063;-62
2023/06/19 01:51:20;;;;;;;;;12.00;11.00;25.00;54.50;;;;;;111295;1244;44905;-62
2023/06/19 01:53:47;;;;;;;;;13.00;12.33;25.00;54.50;;;;;;111295;1241;49704;-62
2023/06/19 01:56:15;;;;;;;;;12.67;12.33;25.00;54.50;;;;;;111216;1243;49765;-62
2023/06/19 01:58:42;;;;;;;;;14.75;13.00;25.00;54.80;;;;;;111317;1240;54149;-62
2023/06/19 02:01:09;;;;;;;;;11.00;10.75;25.00;54.60;;;;;;111318;1238;44624;-61
2023/06/19 02:03:36;;;;;;;;;12.00;11.50;24.90;54.50;;;;;;111284;1239;50437;-61
2023/06/19 02:06:02;;;;;;;;;12.75;11.00;25.00;54.60;;;;;;111163;1243;49613;-61
2023/06/19 02:08:29;;;;;;;;;12.75;12.00;24.90;54.50;;;;;;111269;1244;53893;-60
2023/06/19 02:10:56;;;;;;;;;14.00;13.67;24.90;54.70;;;;;;111246;1240;44649;-62
2023/06/19 02:13:23;;;;;;;;;12.00;11.25;24.90;54.50;;;;;;111291;1238;49361;-62
2023/06/19 02:15:51;;;;;;;;;13.00;11.75;24.90;54.50;;;;;;111117;1243;49205;-62
2023/06/19 02:18:18;;;;;;;;;13.67;12.67;24.90;54.50;;;;;;111249;1244;53842;-63
2023/06/19 02:20:44;;;;;;;;;12.25;10.75;24.90;54.50;;;;;;111326;1240;45160;-62
2023/06/19 02:23:11;;;;;;;;;12.00;11.00;24.90;54.50;;;;;;111297;1243;50318;-61
2023/06/19 02:25:38;;;;;;;;;13.00;12.00;24.90;54.50;;;;;;111114;1239;49163;-62
2023/06/19 02:28:05;;;;;;;;;12.00;11.00;24.90;54.80;;;;;;111197;1244;53909;-61
2023/06/19 02:30:32;;;;;;;;;12.75;12.00;24.90;54.50;;;;;;111277;1238;44830;-61
2023/06/19 02:32:59;;;;;;;;;12.00;11.00;24.90;54.80;;;;;;111279;1238;49224;-62
2023/06/19 02:35:26;;;;;;;;;14.00;13.50;24.90;54.60;;;;;;111158;1240;49577;-62
2023/06/19 02:37:53;;;;;;;;;14.00;13.00;24.90;54.60;;;;;;111279;1244;54486;-62
2023/06/19 02:40:20;;;;;;;;;12.00;11.25;24.90;54.70;;;;;;111291;1240;44757;-62
2023/06/19 02:42:47;;;;;;;;;14.33;12.00;24.90;54.60;;;;;;111281;1243;49646;-63
2023/06/19 02:45:15;;;;;;;;;12.00;11.75;24.90;54.60;;;;;;111059;1244;50757;-62
2023/06/19 02:47:42;;;;;;;;;10.75;10.75;24.80;54.50;;;;;;111258;1240;53895;-63
2023/06/19 02:50:09;;;;;;;;;12.25;11.75;24.80;54.70;;;;;;111302;1244;44217;-62
2023/06/19 02:52:36;;;;;;;;;13.75;12.75;24.90;54.80;;;;;;111225;1243;49546;-62
2023/06/19 02:55:04;;;;;;;;;14.00;13.00;24.90;54.60;;;;;;111071;1243;48966;-62
2023/06/19 02:57:31;;;;;;;;;12.00;11.00;24.80;54.70;;;;;;111224;1241;53589;-62
2023/06/19 02:59:58;;;;;;;;;11.00;10.75;24.90;54.80;;;;;;111257;1243;44576;-63
2023/06/19 03:02:25;;;;;;;;;11.75;10.75;24.90;54.60;;;;;;111244;1244;49813;-63
2023/06/19 03:04:52;;;;;;;;;11.50;10.00;24.90;54.60;;;;;;111088;1239;49289;-63
2023/06/19 03:07:19;;;;;;;;;14.00;12.67;24.80;54.50;;;;;;111216;1239;53566;-62
2023/06/19 03:09:46;;;;;;;;;12.33;11.33;24.90;54.10;;;;;;111296;1240;44482;-62
2023/06/19 03:12:13;;;;;;;;;14.00;12.00;24.80;54.40;;;;;;111265;1239;49713;-63
2023/06/19 03:14:40;;;;;;;;;11.33;10.67;24.80;54.40;;;;;;111060;1240;49751;-63
2023/06/19 03:17:07;;;;;;;;;13.33;12.33;24.80;54.60;;;;;;111216;1240;53319;-62
2023/06/19 03:19:34;;;;;;;;;11.75;11.00;24.90;54.70;;;;;;111236;1238;44145;-63
2023/06/19 03:22:02;;;;;;;;;13.25;12.00;24.90;54.50;;;;;;111284;1244;49596;-62
2023/06/19 03:24:29;;;;;;;;;14.00;13.50;24.80;54.40;;;;;;111033;1243;50633;-61
2023/06/19 03:26:56;;;;;;;;;12.00;11.75;24.80;54.40;;;;;;111223;1243;54493;-63
2023/06/19 03:29:23;;;;;;;;;12.33;11.67;24.80;54.40;;;;;;111281;1242;45008;-63
2023/06/19 03:31:50;;;;;;;;;16.25;15.50;24.80;54.40;;;;;;111267;1238;49884;-63
2023/06/19 03:34:17;;;;;;;;;15.00;13.00;24.80;54.40;;;;;;111209;1241;50421;-63
2023/06/19 03:36:44;;;;;;;;;14.00;13.00;24.80;54.40;;;;;;111200;1244;53807;-61
2023/06/19 03:39:11;;;;;;;;;12.00;11.25;24.80;54.40;;;;;;111284;1239;45779;-65
2023/06/19 03:41:38;;;;;;;;;14.00;12.33;24.80;54.40;;;;;;111223;1243;50760;-62
2023/06/19 03:44:04;;;;;;;;;13.75;12.75;24.80;54.40;;;;;;111203;1243;50861;-63
2023/06/19 03:46:31;;;;;;;;;13.33;12.00;24.70;54.40;;;;;;111121;1243;54153;-62
2023/06/19 03:48:58;;;;;;;;;12.75;11.75;24.80;54.50;;;;;;111253;1241;45332;-63
2023/06/19 03:51:26;;;;;;;;;15.67;14.67;24.70;54.40;;;;;;111303;1240;49413;-62
2023/06/19 03:53:53;;;;;;;;;13.00;12.67;24.70;54.40;;;;;;111230;1243;49123;-63
2023/06/19 03:56:20;;;;;;;;;13.50;12.75;24.70;54.40;;;;;;111076;1243;54324;-63
2023/06/19 03:58:47;;;;;;;;;13.75;13.25;24.70;54.50;;;;;;111324;1244;44847;-63
2023/06/19 04:01:14;;;;;;;;;12.75;12.75;24.70;54.50;;;;;;111340;1243;49016;-62
2023/06/19 04:03:41;;;;;;;;;12.75;11.00;24.70;54.50;;;;;;111226;1239;49544;-63
2023/06/19 04:06:08;;;;;;;;;12.25;11.75;24.70;54.50;;;;;;111048;1240;53519;-61
2023/06/19 04:08:35;;;;;;;;;13.75;13.25;24.60;54.50;;;;;;111268;1243;44483;-61
2023/06/19 04:11:02;;;;;;;;;11.00;10.00;24.60;54.50;;;;;;111260;1243;50013;-62
2023/06/19 04:13:29;;;;;;;;;14.00;12.50;24.60;54.70;;;;;;111323;1239;48900;-62
2023/06/19 04:15:56;;;;;;;;;14.00;12.25;24.70;54.60;;;;;;111065;1241;54920;-61
2023/06/19 04:18:22;;;;;;;;;14.50;12.00;24.60;54.50;;;;;;111249;1243;44202;-62
2023/06/19 04:20:49;;;;;;;;;12.75;12.00;24.70;55.10;;;;;;111221;1241;49744;-64
2023/06/19 04:23:16;;;;;;;;;13.00;12.75;24.60;54.50;;;;;;111314;1240;50605;-63
2023/06/19 04:25:43;;;;;;;;;12.75;12.25;24.70;54.50;;;;;;111016;1243;53780;-63
2023/06/19 04:28:10;;;;;;;;;12.00;11.00;24.60;54.50;;;;;;111207;1247;45032;-63
2023/06/19 04:30:39;;;;;;;;;13.75;12.75;24.60;54.50;;;;;;111173;1240;49386;-62
2023/06/19 04:33:07;;;;;;;;;15.00;14.00;24.60;54.50;;;;;;111246;1243;50129;-62
2023/06/19 04:35:39;;;;;;;;;12.75;11.75;24.60;54.50;;;;;;111068;1243;54134;-62
2023/06/19 04:38:07;;;;;;;;;13.75;12.00;24.60;54.50;;;;;;111289;1240;44497;-61
2023/06/19 04:40:34;;;;;;;;;13.75;13.75;24.60;54.50;;;;;;111225;1244;50338;-62
2023/06/19 04:43:02;;;;;;;;;13.00;12.75;24.60;54.50;;;;;;111229;1240;49898;-62
2023/06/19 04:45:29;;;;;;;;;14.00;11.00;24.60;54.50;;;;;;111121;1243;53486;-65
2023/06/19 04:47:56;;;;;;;;;13.75;13.75;24.60;54.50;;;;;;111299;1243;44348;-62
2023/06/19 04:50:23;;;;;;;;;13.00;12.00;24.60;54.40;;;;;;111283;1243;49739;-61
2023/06/19 04:52:50;;;;;;;;;13.00;12.00;24.60;54.60;;;;;;111217;1240;49664;-61
2023/06/19 04:55:17;;;;;;;;;13.00;11.67;24.60;54.00;;;;;;111229;1239;53672;-60
2023/06/19 04:57:44;;;;;;;;;14.75;13.00;24.60;54.60;;;;;;111217;1243;44768;-62
2023/06/19 05:00:12;;;;;;;;;13.00;12.25;24.60;55.00;;;;;;111303;1238;48788;-63
2023/06/19 05:02:43;;;;;;;;;15.00;14.00;24.60;54.70;;;;;;111210;1243;49453;-62
2023/06/19 05:05:10;;;;;;;;;13.00;12.00;24.60;54.70;;;;;;111077;1238;53983;-61
2023/06/19 05:07:37;;;;;;;;;13.25;10.75;24.60;54.20;;;;;;111255;1243;45532;-63
2023/06/19 05:10:06;;;;;;;;;12.00;11.25;24.60;54.50;;;;;;111315;1239;49958;-63
2023/06/19 05:12:34;;;;;;;;;11.00;10.00;24.60;54.50;;;;;;111310;1243;50618;-64
2023/06/19 05:15:02;;;;;;;;;14.00;13.00;24.60;54.90;;;;;;111341;1243;55020;-61
2023/06/19 05:17:29;;;;;;;;;14.00;12.75;24.60;54.60;;;;;;111204;1238;45599;-61
2023/06/19 05:19:56;;;;;;;;;13.25;12.50;24.60;54.50;;;;;;111419;1243;49620;-66
2023/06/19 05:22:23;;;;;;;;;17.50;16.50;24.60;54.90;;;;;;111451;1240;49520;-64
2023/06/19 05:24:50;;;;;;;;;25.00;21.00;24.60;55.90;;;;;;111297;1240;53704;-63
2023/06/19 05:27:18;;;;;;;;;24.00;21.00;24.60;56.40;;;;;;111202;1244;45383;-65
2023/06/19 05:29:45;;;;;;;;;25.75;21.00;24.60;56.70;;;;;;111363;1240;49780;-66
2023/06/19 05:32:11;;;;;;;;;26.00;24.00;24.60;57.00;;;;;;111293;1244;50399;-66
2023/06/19 05:34:38;;;;;;;;;28.00;25.00;24.60;57.40;;;;;;111277;1243;53910;-65
2023/06/19 05:37:05;;;;;;;;;27.75;23.25;24.70;57.70;;;;;;111286;1243;44539;-68
2023/06/19 05:39:32;;;;;;;;;30.00;27.00;24.70;57.60;;;;;;111241;1244;49586;-62
2023/06/19 05:41:59;;;;;;;;;27.00;25.00;24.80;57.70;;;;;;111266;1238;49678;-65
2023/06/19 05:44:26;;;;;;;;;27.25;26.25;24.80;57.70;;;;;;111273;1239;54197;-65
2023/06/19 05:46:53;;;;;;;;;28.25;27.00;24.90;57.30;;;;;;111372;1243;44302;-68
2023/06/19 05:49:20;;;;;;;;;28.00;25.75;24.90;57.60;;;;;;111391;1240;49064;-69
2023/06/19 05:51:47;;;;;;;;;26.50;23.00;24.90;57.70;;;;;;111232;1239;49325;-68
2023/06/19 05:54:15;;;;;;;;;29.33;26.67;25.00;57.60;;;;;;111262;1238;54211;-65
2023/06/19 05:56:41;;;;;;;;;28.50;26.50;25.00;57.60;;;;;;111275;1244;44620;-66
2023/06/19 05:59:08;;;;;;;;;24.33;23.33;25.10;57.90;;;;;;111275;1243;49691;-67
2023/06/19 06:01:35;;;;;;;;;25.00;22.67;25.10;57.50;;;;;;111354;1240;50433;-64
2023/06/19 06:04:03;;;;;;;;;27.00;23.75;25.20;57.40;;;;;;111332;1243;54430;-63
2023/06/19 06:06:30;;;;;;;;;27.50;25.00;25.20;57.20;;;;;;111237;1243;44824;-64
2023/06/19 06:08:56;;;;;;;;;26.67;25.00;25.30;57.20;;;;;;111273;1244;50056;-64
2023/06/19 06:11:23;;;;;;;;;29.25;26.75;25.30;56.90;;;;;;111337;1240;49127;-65
2023/06/19 06:13:50;;;;;;;;;28.50;24.00;25.40;56.90;;;;;;111236;1242;53390;-65
2023/06/19 06:16:17;;;;;;;;;27.00;24.75;25.40;56.90;;;;;;113201;1240;45196;-65
2023/06/19 06:18:45;;;;;;;;;22.25;21.25;25.50;57.30;;;;;;112291;1243;50499;-66
2023/06/19 06:21:15;;;;;;;;;26.75;24.00;25.60;56.90;;;;;;111294;1240;49321;-66
2023/06/19 06:23:44;;;;;;;;;28.67;26.00;25.70;56.50;;;;;;111302;1243;54329;-65
2023/06/19 06:26:11;;;;;;;;;25.00;23.67;25.80;56.40;;;;;;111363;1240;44434;-66
2023/06/19 06:28:39;;;;;;;;;30.00;26.75;25.80;56.50;;;;;;111728;1239;49096;-67
2023/06/19 06:31:07;;;;;;;;;30.50;28.25;25.80;56.50;;;;;;111435;1241;49366;-66
2023/06/19 06:33:34;;;;;;;;;31.75;29.75;25.90;56.00;;;;;;111388;1238;54259;-67
2023/06/19 06:36:01;;;;;;;;;31.33;29.00;25.90;55.50;;;;;;112995;1243;45006;-65
2023/06/19 06:38:28;;;;;;;;;32.00;30.00;25.90;55.10;;;;;;111311;1243;48877;-66
2023/06/19 06:40:55;;;;;;;;;26.50;26.00;26.00;55.60;;;;;;111310;1243;50343;-65
2023/06/19 06:43:22;;;;;;;;;28.00;27.00;26.10;55.20;;;;;;111190;1244;54516;-68
2023/06/19 06:45:50;;;;;;;;;28.33;25.33;26.10;55.50;;;;;;111290;1244;45375;-68
2023/06/19 06:48:17;;;;;;;;;29.25;28.25;26.10;55.90;;;;;;111256;1239;49355;-65
2023/06/19 06:50:44;;;;;;;;;32.00;28.67;26.10;56.20;;;;;;111453;1240;50069;-65
2023/06/19 06:53:10;;;;;;;;;31.25;29.75;26.10;55.80;;;;;;111484;1241;54911;-66
2023/06/19 06:55:38;;;;;;;;;30.00;27.25;26.10;56.10;;;;;;111736;1244;45407;-67
2023/06/19 06:58:05;;;;;;;;;26.75;25.75;26.10;56.30;;;;;;111474;1244;50088;-67
2023/06/19 07:00:32;;;;;;;;;27.00;24.75;26.20;56.40;;;;;;111504;1240;49772;-66
2023/06/19 07:02:59;;;;;;;;;30.33;28.67;26.20;56.40;;;;;;111519;1239;53578;-66
2023/06/19 07:05:26;;;;;;;;;29.50;27.00;26.20;56.50;;;;;;111740;1243;44531;-66
2023/06/19 07:07:53;;;;;;;;;33.50;28.75;26.30;56.70;;;;;;111495;1243;49666;-68
2023/06/19 07:10:20;;;;;;;;;28.00;27.00;26.30;56.50;;;;;;111536;1244;49052;-66
2023/06/19 07:12:48;;;;;;;;;29.50;25.50;26.30;56.60;;;;;;111517;1243;53554;-66
2023/06/19 07:15:15;;;;;;;;;26.00;24.00;26.40;56.30;;;;;;111801;1243;45450;-67
2023/06/19 07:17:44;;;;;;;;;26.50;25.00;26.40;56.20;;;;;;111608;1238;49721;-68
2023/06/19 07:20:11;;;;;;;;;27.75;27.00;26.50;56.20;;;;;;111629;1243;49890;-67
2023/06/19 07:22:38;;;;;;;;;26.00;24.50;26.50;56.10;;;;;;111597;1240;53905;-67
2023/06/19 07:25:06;;;;;;;;;26.75;26.25;26.50;55.90;;;;;;111786;1240;44532;-68
2023/06/19 07:27:33;;;;;;;;;32.50;29.50;26.60;56.20;;;;;;111475;1241;49391;-66
2023/06/19 07:30:00;;;;;;;;;29.25;26.75;26.60;55.90;;;;;;111527;1243;50528;-67
2023/06/19 07:32:27;;;;;;;;;27.50;26.00;26.60;55.90;;;;;;111637;1240;54494;-66
2023/06/19 07:34:54;;;;;;;;;29.00;27.00;26.60;56.10;;;;;;111866;1239;44782;-64
2023/06/19 07:37:21;;;;;;;;;28.50;25.75;26.60;55.90;;;;;;111597;1238;50339;-67
2023/06/19 07:39:49;;;;;;;;;26.00;25.25;26.70;56.10;;;;;;111599;1238;49844;-67
2023/06/19 07:42:18;;;;;;;;;31.75;27.50;26.70;56.00;;;;;;111574;1241;53182;-63
2023/06/19 07:44:46;;;;;;;;;28.25;26.00;26.80;56.30;;;;;;111874;1239;44834;-64
2023/06/19 07:47:15;;;;;;;;;29.00;27.75;26.80;56.30;;;;;;111633;1240;49120;-65
2023/06/19 07:49:43;;;;;;;;;29.00;27.25;26.90;56.10;;;;;;111743;1243;49415;-66
2023/06/19 07:52:09;;;;;;;;;29.75;27.25;26.90;56.00;;;;;;111722;1243;53466;-66
2023/06/19 07:54:36;;;;;;;;;26.33;25.33;27.00;56.10;;;;;;111938;1239;44206;-64
2023/06/19 07:57:04;;;;;;;;;25.00;25.00;27.00;56.10;;;;;;111793;1243;49004;-67
2023/06/19 07:59:31;;;;;;;;;26.25;24.25;27.10;56.10;;;;;;111543;1243;48966;-64
2023/06/19 08:01:58;;;;;;;;;27.50;24.50;27.10;55.90;;;;;;111747;1240;54193;-64
2023/06/19 08:04:24;;;;;;;;;24.00;23.00;27.20;55.80;;;;;;111903;1238;44669;-64
2023/06/19 08:06:51;;;;;;;;;26.75;25.00;27.30;56.00;;;;;;111660;1241;49290;-67
2023/06/19 08:09:18;;;;;;;;;23.50;23.00;27.40;55.60;;;;;;111646;1240;49885;-64
2023/06/19 08:11:45;;;;;;;;;27.67;25.00;27.50;55.60;;;;;;111713;1240;53080;-68
2023/06/19 08:14:13;;;;;;;;;23.25;22.25;27.50;55.40;;;;;;111791;1243;45191;-66
2023/06/19 08:16:41;;;;;;;;;26.75;25.00;27.60;55.40;;;;;;111740;1238;49975;-67
2023/06/19 08:19:08;;;;;;;;;25.00;23.25;27.60;55.60;;;;;;111690;1239;49315;-67
2023/06/19 08:21:35;;;;;;;;;24.00;21.33;27.70;55.80;;;;;;111705;1243;53681;-66
2023/06/19 08:24:02;;;;;;;;;24.33;22.33;27.70;55.60;;;;;;111668;1243;44978;-66
2023/06/19 08:26:29;;;;;;;;;22.75;21.75;27.80;55.40;;;;;;112012;1240;49472;-70
2023/06/19 08:28:56;;;;;;;;;24.00;24.00;27.80;55.40;;;;;;111852;1238;49280;-67
2023/06/19 08:31:27;;;;;;;;;21.00;20.00;27.80;55.10;;;;;;111821;1243;53947;-69
2023/06/19 08:33:57;;;;;;;;;24.00;21.50;27.90;55.10;;;;;;111601;1243;44456;-62
2023/06/19 08:36:24;;;;;;;;;25.33;25.00;28.00;54.90;;;;;;111335;1244;49202;-64
2023/06/19 08:38:52;;;;;;;;;24.25;21.00;28.00;54.70;;;;;;111357;1239;49694;-64
2023/06/19 08:41:19;;;;;;;;;23.75;22.25;28.00;54.70;;;;;;111340;1243;54201;-64
2023/06/19 08:43:46;;;;;;;;;23.67;23.00;28.00;54.60;;;;;;111307;1238;44538;-64
2023/06/19 08:46:18;;;;;;;;;26.75;25.25;27.90;54.80;;;;;;111727;1240;49107;-62
2023/06/19 08:48:45;;;;;;;;;24.00;22.00;27.90;55.10;;;;;;111331;1243;50335;-62
2023/06/19 08:51:13;;;;;;;;;24.25;22.25;27.90;54.60;;;;;;111340;1238;54138;-66
2023/06/19 08:53:46;;;;;;;;;23.00;23.00;28.00;55.60;;;;;;111377;1243;44847;-64
2023/06/19 08:56:14;;;;;;;;;26.50;25.00;28.00;54.60;;;;;;111319;1239;50342;-66
2023/06/19 08:58:41;;;;;;;;;30.00;26.00;28.00;54.70;;;;;;111400;1245;49214;-64
2023/06/19 09:01:08;;;;;;;;;30.00;28.25;28.00;54.70;;;;;;111318;1242;53393;-68
2023/06/19 09:03:35;;;;;;;;;27.33;25.00;28.00;54.80;;;;;;111419;1239;46510;-69
2023/06/19 09:06:04;;;;;;;;;27.50;26.25;27.90;54.90;;;;;;111656;1240;49568;-69
2023/06/19 09:08:31;;;;;;;;;28.33;25.67;27.90;54.90;;;;;;111374;1244;50723;-73
2023/06/19 09:11:00;;;;;;;;;43.25;34.50;27.90;54.90;;;;;;111351;1244;53024;-62
2023/06/19 09:13:31;;;;;;;;;59.67;46.00;27.90;56.00;;;;;;111388;1243;45004;-63
2023/06/19 09:16:01;;;;;;;;;69.00;53.25;27.90;56.70;;;;;;111274;1240;49493;-62
2023/06/19 09:18:30;;;;;;;;;62.00;46.50;27.90;57.10;;;;;;111342;1240;49449;-63
2023/06/19 09:20:57;;;;;;;;;53.00;42.33;27.90;56.80;;;;;;111245;1240;54645;-64
2023/06/19 09:23:25;;;;;;;;;55.00;40.00;27.80;56.50;;;;;;111193;1244;45214;-64
2023/06/19 09:25:54;;;;;;;;;47.75;36.25;27.80;56.60;;;;;;111329;1244;50065;-65
2023/06/19 09:28:24;;;;;;;;;51.50;39.00;27.80;56.60;;;;;;111277;1239;49669;-63
2023/06/19 09:31:01;;;;;;;;;52.00;36.00;27.80;56.70;;;;;;111308;1240;54386;-63
2023/06/19 09:33:30;;;;;;;;;45.00;36.00;27.70;56.40;;;;;;111307;1244;45504;-63
2023/06/19 09:35:58;;;;;;;;;38.50;33.25;27.70;56.90;;;;;;111299;1238;50571;-65
2023/06/19 09:38:30;;;;;;;;;34.75;31.25;27.70;56.20;;;;;;111351;1243;50095;-64
2023/06/19 09:41:00;;;;;;;;;41.25;34.00;27.70;56.20;;;;;;111214;1244;54715;-62
2023/06/19 09:43:42;;;;;;;;;44.25;35.25;27.60;56.20;;;;;;111225;1244;44959;-62
2023/06/19 09:46:10;;;;;;;;;42.00;33.00;27.60;56.40;;;;;;111277;1238;49905;-62
2023/06/19 09:48:46;;;;;;;;;36.25;32.00;27.60;56.50;;;;;;111253;1243;49265;-62
2023/06/19 09:51:30;;;;;;;;;35.25;30.00;27.60;56.30;;;;;;111306;1240;53704;-63
2023/06/19 09:53:59;;;;;;;;;38.50;31.75;27.50;56.10;;;;;;111290;1244;45261;-63
2023/06/19 09:56:27;;;;;;;;;41.50;32.75;27.50;56.00;;;;;;111301;1243;49856;-63
2023/06/19 09:58:59;;;;;;;;;35.75;31.00;27.40;56.10;;;;;;111254;1243;49192;-63
2023/06/19 10:01:28;;;;;;;;;40.00;32.00;27.40;56.10;;;;;;111318;1238;54796;-64
2023/06/19 10:04:06;;;;;;;;;37.75;32.25;27.40;56.30;;;;;;111277;1241;44382;-67
2023/06/19 10:06:45;;;;;;;;;40.25;32.50;27.40;56.20;;;;;;111257;1240;49352;-66
2023/06/19 10:09:14;;;;;;;;;36.33;30.67;27.40;56.50;;;;;;111208;1243;49389;-62
2023/06/19 10:11:51;;;;;;;;;33.00;29.00;27.30;56.30;;;;;;111217;1238;53534;-66
2023/06/19 10:14:22;;;;;;;;;34.00;29.75;27.30;56.10;;;;;;111373;1244;44114;-63
2023/06/19 10:16:49;;;;;;;;;34.75;28.00;27.30;56.50;;;;;;111289;1244;49196;-64
2023/06/19 10:19:17;;;;;;;;;30.50;27.75;27.30;56.80;;;;;;111239;1241;48964;-63
2023/06/19 10:21:49;;;;;;;;;34.50;31.25;27.30;56.90;;;;;;111345;1243;53511;-63
2023/06/19 10:24:20;;;;;;;;;34.25;29.25;27.20;56.70;;;;;;111140;1241;44343;-63
2023/06/19 10:27:00;;;;;;;;;34.00;30.50;27.20;57.00;;;;;;111190;1244;50115;-62
2023/06/19 10:29:38;;;;;;;;;28.75;27.75;27.20;56.70;;;;;;111243;1240;49574;-64
2023/06/19 10:32:06;;;;;;;;;29.50;27.75;27.20;56.80;;;;;;111279;1243;53607;-63
2023/06/19 10:34:34;;;;;;;;;32.00;29.50;27.20;56.80;;;;;;111260;1243;45044;-62
2023/06/19 10:37:01;;;;;;;;;30.33;27.67;27.20;56.90;;;;;;111258;1243;48895;-63
2023/06/19 10:39:28;;;;;;;;;32.00;27.00;27.20;56.80;;;;;;111264;1240;49091;-64
2023/06/19 10:41:55;;;;;;;;;27.75;26.00;27.10;56.70;;;;;;111316;1239;53785;-63
2023/06/19 10:44:24;;;;;;;;;34.67;31.33;27.20;56.90;;;;;;111231;1239;45194;-63
2023/06/19 10:46:52;;;;;;;;;32.50;28.75;27.10;56.60;;;;;;111291;1241;49883;-61
2023/06/19 10:49:21;;;;;;;;;32.33;30.00;27.10;56.80;;;;;;111216;1239;49771;-62
2023/06/19 10:51:48;;;;;;;;;33.50;30.50;27.10;56.90;;;;;;111241;1244;54170;-63
2023/06/19 10:54:15;;;;;;;;;29.67;28.00;27.10;56.70;;;;;;111210;1244;44212;-64
2023/06/19 10:56:48;;;;;;;;;30.75;30.00;27.00;56.80;;;;;;111233;1238;50817;-63
2023/06/19 10:59:15;;;;;;;;;28.00;25.00;27.10;56.80;;;;;;111253;1244;49821;-63
2023/06/19 11:01:45;;;;;;;;;31.25;25.75;27.10;56.90;;;;;;111237;1243;53962;-63
2023/06/19 11:04:14;;;;;;;;;27.25;27.00;27.10;56.70;;;;;;111240;1238;44813;-63
2023/06/19 11:06:44;;;;;;;;;25.25;24.00;27.10;56.70;;;;;;111427;1243;50238;-64
2023/06/19 11:09:11;;;;;;;;;31.00;28.00;27.00;56.30;;;;;;111254;1240;49663;-64
2023/06/19 11:11:43;;;;;;;;;23.50;23.00;27.00;56.30;;;;;;111298;1243;54027;-61
2023/06/19 11:14:15;;;;;;;;;28.00;24.25;27.10;56.30;;;;;;111254;1239;44669;-62
2023/06/19 11:16:45;;;;;;;;;25.00;24.00;27.00;56.30;;;;;;111227;1243;49843;-63
2023/06/19 11:19:18;;;;;;;;;25.75;23.75;27.00;56.20;;;;;;111207;1243;49574;-63
2023/06/19 11:21:50;;;;;;;;;27.50;25.75;27.00;56.20;;;;;;111215;1238;53889;-62
2023/06/19 11:24:18;;;;;;;;;26.75;24.25;27.00;56.30;;;;;;111298;1243;45182;-63
2023/06/19 11:26:50;;;;;;;;;27.50;25.50;27.00;56.30;;;;;;110808;1243;635773;-65
2023/06/19 11:29:22;;;;;;;;;28.75;26.50;27.00;56.30;;;;;;111304;1244;49752;-63
2023/06/19 11:31:50;;;;;;;;;30.25;26.25;27.00;56.20;;;;;;111387;1238;54691;-64
2023/06/19 11:34:17;;;;;;;;;25.25;24.50;27.00;56.00;;;;;;111240;1238;45586;-62
2023/06/19 11:36:44;;;;;;;;;32.67;27.00;27.00;55.80;;;;;;111173;1245;50045;-63
2023/06/19 11:39:15;;;;;;;;;26.25;24.25;27.00;55.80;;;;;;111302;1244;49106;-64
2023/06/19 11:41:45;;;;;;;;;24.25;22.50;27.00;56.30;;;;;;111381;1244;53505;-62
2023/06/19 11:44:13;;;;;;;;;24.75;23.50;27.00;55.00;;;;;;111283;1240;45065;-63
2023/06/19 11:46:40;;;;;;;;;23.00;21.00;27.00;55.00;;;;;;111262;1243;50580;-64
2023/06/19 11:49:14;;;;;;;;;23.25;22.00;26.90;55.00;;;;;;111219;1243;49486;-63
2023/06/19 11:51:41;;;;;;;;;27.25;25.00;27.00;55.20;;;;;;111213;1239;53429;-63
2023/06/19 11:54:09;;;;;;;;;27.25;22.75;26.90;55.20;;;;;;111245;1242;44517;-63
2023/06/19 11:56:39;;;;;;;;;25.33;24.00;26.90;55.30;;;;;;111257;1243;49413;-66
2023/06/19 11:59:07;;;;;;;;;28.75;24.75;27.00;55.10;;;;;;111302;1243;49318;-64
2023/06/19 12:01:35;;;;;;;;;24.75;22.75;26.90;54.80;;;;;;111265;1243;53435;-64
2023/06/19 12:04:03;;;;;;;;;23.33;22.00;27.00;55.00;;;;;;111217;1243;44274;-63
2023/06/19 12:06:30;;;;;;;;;24.67;23.33;26.90;55.30;;;;;;111366;1238;49213;-63
2023/06/19 12:08:58;;;;;;;;;26.00;23.33;26.90;54.80;;;;;;111167;1243;49935;-63
2023/06/19 12:11:25;;;;;;;;;22.25;21.50;26.90;54.90;;;;;;111222;1239;54402;-63
2023/06/19 12:13:53;;;;;;;;;22.00;21.33;26.90;55.20;;;;;;111253;1238;44673;-64
2023/06/19 12:16:20;;;;;;;;;25.33;24.67;26.90;55.30;;;;;;111426;1240;49174;-63
2023/06/19 12:18:47;;;;;;;;;24.00;23.50;26.90;55.20;;;;;;111248;1244;49647;-63
2023/06/19 12:21:14;;;;;;;;;20.50;20.00;26.90;55.00;;;;;;111362;1239;54078;-68
2023/06/19 12:23:41;;;;;;;;;25.75;24.25;26.90;55.10;;;;;;111332;1240;45028;-64